Flight Track Log - Related Links

Times and Time Zones

All times are in EDT time to prevent confusion due to time zone crossing. See the FSR411 flight status page for this flight to view local times or setup timezone preferences in your user account.

Time Position Orientation Groundspeed Altitude Reporting Facility
EDT Latitude Longitude Course Direction KTS MPH feet Rate Location/Type
Fri 08:04:31 PM 41.4119 -90.4156 128° Southeast 224 258 4,100  Level Chicago Center
Fri 08:05:33 PM 41.3619 -90.3417 132° Southeast 261 300 7,200 2,758 Climbing Chicago Center
Fri 08:06:35 PM 41.3081 -90.2556 130° Southeast 300 345 9,800 2,352 Climbing Chicago Center
Fri 08:07:38 PM 41.2431 -90.1492 129° Southeast 366 421 12,100 2,256 Climbing Chicago Center
Fri 08:08:40 PM 41.1581 -90.0122 129° Southeast 398 458 14,500 1,403 Climbing Chicago Center
Fri 08:09:00 PM 41.1472 -90.0173 128° Southeast  Level Estimated
Fri 08:09:42 PM 41.0844 -89.8956 130° Southeast 407 468 15,000  Level Chicago Center
Fri 08:10:44 PM 41.0103 -89.7769 130° Southeast 413 475 15,000  Level Chicago Center
Fri 08:11:46 PM 40.9358 -89.6597 130° Southeast 413 475 15,000  Level Chicago Center
Fri 08:12:48 PM 40.8608 -89.5419 130° Southeast 412 474 15,000  Level Chicago Center
Fri 08:13:50 PM 40.7861 -89.4247 130° Southeast 413 475 15,000 -484 Level Chicago Center
Fri 08:14:52 PM 40.7119 -89.3106 131° Southeast 408 470 14,000 -1,210 Descending Chicago Center
Fri 08:15:54 PM 40.6400 -89.1969 130° Southeast 403 464 12,500 -1,210 Descending Chicago Center
Fri 08:16:56 PM 40.5683 -89.0861 130° Southeast 399 459 11,500 -774 Descending Chicago Center
Fri 08:17:58 PM 40.4825 -88.9531 130° Southeast 397 457 10,900 -242 Descending Chicago Center
Fri 08:19:00 PM 40.4114 -88.8436 130° Southeast 395 455 11,000 -435 Climbing Chicago Center
Fri 08:20:02 PM 40.3475 -88.7478 131° Southeast 356 410 10,000 -1,488 Descending Chicago Center
Fri 08:21:05 PM 40.2936 -88.6625 130° Southeast 314 361 7,900 -1,728 Descending Chicago Center
Fri 08:22:07 PM 40.2444 -88.5811 128° Southeast 294 338 6,400 -1,500 Descending Chicago Center
Fri 08:23:09 PM 40.2022 -88.4975 123° Southeast 276 318 4,800 -1,500 Descending Chicago Center
Fri 08:24:11 PM 40.1514 -88.4103 127° Southeast 265 305 3,300 -1,065 Descending Chicago Center
Fri 08:25:13 PM 40.1156 -88.3719 141° Southeast 230 265 2,600 -677 Descending Chicago Center
Fri 08:27:00 PM 40.0388 -88.2778 131° Southeast  Level Estimated
Fri 08:34:00 PM 40.0388 -88.2778 131° Southeast  Level Estimated
Fri 08:35:00 PM 40.0388 -88.2778 131° Southeast  Level Estimated

Login

Don't have an account? Register now (free) for customized features, flight alerts, and more!